createdAt,value
2019-02-23T04:09:02.979Z,103900.72
2019-02-23T04:11:33.590Z,103900.70
2019-02-23T04:14:04.109Z,103894.64
2019-02-23T04:16:34.705Z,103898.93
2019-02-23T04:19:05.213Z,103895.47
2019-02-23T04:21:35.756Z,103900.66
2019-02-23T04:24:06.323Z,103894.87
2019-02-23T04:26:36.837Z,103897.00
2019-02-23T04:29:07.327Z,103908.27
2019-02-23T04:31:37.897Z,103907.83
2019-02-23T04:34:08.412Z,103915.61
2019-02-23T04:36:38.921Z,103900.15
2019-02-23T04:39:09.720Z,103901.42
2019-02-23T04:41:40.216Z,103911.76
2019-02-23T04:44:10.734Z,103922.55
2019-02-23T04:46:41.283Z,103924.73
2019-02-23T04:49:11.820Z,103923.97
2019-02-23T04:51:42.350Z,103936.09
2019-02-23T04:54:12.946Z,103941.39
2019-02-23T04:56:43.444Z,103936.67
2019-02-23T04:59:13.935Z,103940.22
2019-02-23T05:01:44.539Z,103944.98
2019-02-23T05:04:14.982Z,103950.18
2019-02-23T05:06:45.460Z,103955.37
2019-02-23T05:09:16.049Z,103964.93
2019-02-23T05:11:46.573Z,103962.81
2019-02-23T05:14:17.103Z,103956.32
2019-02-23T05:16:47.754Z,103955.80
2019-02-23T05:19:18.260Z,103947.98
2019-02-23T05:21:48.818Z,103944.36
2019-02-23T05:24:19.412Z,103937.28
2019-02-23T05:26:49.904Z,103926.84
2019-02-23T05:29:20.418Z,103922.04
2019-02-23T05:31:50.940Z,103928.02
2019-02-23T05:34:21.503Z,103930.23
2019-02-23T05:36:52.018Z,103917.64
2019-02-23T05:39:22.609Z,103910.25
2019-02-23T05:41:53.158Z,103922.84
2019-02-23T05:44:23.652Z,103916.75
2019-02-23T05:46:54.256Z,103914.03
2019-02-23T05:49:24.704Z,103922.72
2019-02-23T05:51:55.188Z,103926.27
2019-02-23T05:54:25.706Z,103931.45
2019-02-23T05:56:56.209Z,103941.28
2019-02-23T05:59:26.715Z,103947.87
2019-02-23T06:01:57.239Z,103939.17
2019-02-23T06:04:27.788Z,103933.06
2019-02-23T06:06:58.296Z,103928.73
2019-02-23T06:09:28.947Z,103922.75
2019-02-23T06:11:59.430Z,103923.23
2019-02-23T06:14:29.952Z,103911.38
2019-02-23T06:17:00.528Z,103902.83
2019-02-23T06:19:31.133Z,103902.90
2019-02-23T06:22:01.681Z,103912.52
2019-02-23T06:24:32.231Z,103917.27
2019-02-23T06:27:02.820Z,103906.05
2019-02-23T06:29:33.358Z,103910.84
2019-02-23T06:32:03.917Z,103917.70
2019-02-23T06:34:34.449Z,103921.28
2019-02-23T06:37:05.004Z,103922.37
2019-02-23T06:39:35.614Z,103911.73
2019-02-23T06:42:06.104Z,103923.86
2019-02-23T06:44:36.727Z,103930.74
2019-02-23T06:47:07.320Z,103940.14
2019-02-23T06:49:37.881Z,103939.83
2019-02-23T06:52:08.415Z,103949.88
2019-02-23T06:54:38.991Z,103946.36
2019-02-23T06:57:09.514Z,103953.83
2019-02-23T06:59:40.072Z,103946.47
2019-02-23T07:02:10.868Z,103937.05
2019-02-23T07:04:41.301Z,103930.12
2019-02-23T07:07:11.806Z,103937.11
2019-02-23T07:09:42.361Z,103934.16
2019-02-23T07:12:12.905Z,103924.31
2019-02-23T07:14:43.445Z,103917.44
2019-02-23T07:17:13.987Z,103916.58
2019-02-23T07:19:44.511Z,103914.03
2019-02-23T07:22:16.100Z,103912.69
2019-02-23T07:24:46.610Z,103916.23
2019-02-23T07:27:17.186Z,103912.34
2019-02-23T07:29:47.749Z,103912.47
2019-02-23T07:32:18.381Z,103916.34
2019-02-23T07:34:48.939Z,103905.67
2019-02-23T07:37:19.518Z,103903.04
2019-02-23T07:39:50.128Z,103891.00
2019-02-23T07:42:20.567Z,103897.14
2019-02-23T07:44:51.068Z,103900.17
2019-02-23T07:47:21.628Z,103899.80
2019-02-23T07:49:52.143Z,103901.95
2019-02-23T07:52:26.285Z,103903.74
2019-02-23T07:54:55.147Z,103902.44
2019-02-23T07:57:25.646Z,103899.45
2019-02-23T07:59:56.170Z,103902.48
2019-02-23T08:02:36.135Z,103894.30
2019-02-23T08:05:08.253Z,103902.13
2019-02-23T08:07:39.966Z,103904.76
2019-02-23T08:10:11.262Z,103901.33
2019-02-23T08:12:41.888Z,103887.48
2019-02-23T08:15:12.566Z,103887.51
2019-02-23T08:17:43.029Z,103882.75
2019-02-23T08:20:13.536Z,103877.52
2019-02-23T08:22:44.042Z,103877.09
2019-02-23T08:25:14.550Z,103865.83
2019-02-23T08:27:45.071Z,103873.20
2019-02-23T08:30:15.596Z,103864.09
2019-02-23T08:32:46.151Z,103869.33
2019-02-23T08:35:16.650Z,103862.36
2019-02-23T08:37:47.217Z,103865.84
2019-02-23T08:40:17.764Z,103850.63
2019-02-23T08:42:48.286Z,103834.11
2019-02-23T08:45:18.808Z,103833.23
2019-02-23T08:47:49.306Z,103835.41
2019-02-23T08:50:19.963Z,103839.31
2019-02-23T08:52:50.568Z,103837.55
2019-02-23T08:55:21.059Z,103842.77
2019-02-23T08:57:51.587Z,103840.98
2019-02-23T09:00:22.112Z,103839.13
2019-02-23T09:02:52.571Z,103843.92
2019-02-23T09:05:23.154Z,103847.38
2019-02-23T09:07:53.651Z,103852.56
2019-02-23T09:10:24.141Z,103864.27
2019-02-23T09:12:54.661Z,103873.83
2019-02-23T09:15:25.207Z,103870.37
2019-02-23T09:17:55.770Z,103872.91
2019-02-23T09:20:29.411Z,103874.58
2019-02-23T09:23:00.472Z,103874.48
2019-02-23T09:25:31.016Z,103867.52
2019-02-23T09:28:01.636Z,103872.76
2019-02-23T09:30:32.124Z,103870.86
2019-02-23T09:33:02.700Z,103868.30
2019-02-23T09:35:33.299Z,103860.39
2019-02-23T09:38:03.888Z,103852.84
2019-02-23T09:40:34.437Z,103842.09
2019-02-23T09:43:04.961Z,103837.64
2019-02-23T09:45:35.841Z,103821.45
2019-02-23T09:48:06.394Z,103819.18
2019-02-23T09:50:36.926Z,103823.50
2019-02-23T09:53:11.255Z,103830.86
2019-02-23T09:55:39.595Z,103838.94
2019-02-23T09:58:10.104Z,103837.66
2019-02-23T10:00:40.687Z,103841.16
2019-02-23T10:03:11.237Z,103853.32
2019-02-23T10:05:41.760Z,103861.59
2019-02-23T10:08:12.290Z,103861.19
2019-02-23T10:10:43.083Z,103857.25
2019-02-23T10:13:13.548Z,103850.70
2019-02-23T10:15:44.054Z,103842.98
2019-02-23T10:18:14.571Z,103838.98
2019-02-23T10:20:45.067Z,103837.64
2019-02-23T10:23:22.145Z,103836.67
2019-02-23T10:25:47.791Z,103832.30
2019-02-23T10:28:18.287Z,103825.70
2019-02-23T10:30:48.763Z,103825.02
2019-02-23T10:33:19.341Z,103817.15
2019-02-23T10:35:49.868Z,103818.41
2019-02-23T10:38:20.442Z,103810.58
2019-02-23T10:40:50.923Z,103800.58
2019-02-23T10:43:21.428Z,103790.53
2019-02-23T10:45:52.097Z,103789.44
2019-02-23T10:48:22.790Z,103792.67
2019-02-23T10:50:54.425Z,103798.55
2019-02-23T10:53:32.549Z,103791.90
2019-02-23T10:55:57.466Z,103793.67
2019-02-23T10:58:27.976Z,103798.59
2019-02-23T11:00:58.478Z,103810.95
2019-02-23T11:03:29.112Z,103812.33
2019-02-23T11:05:59.649Z,103806.68
2019-02-23T11:08:30.095Z,103799.57
2019-02-23T11:11:00.601Z,103799.18
2019-02-23T11:13:31.086Z,103808.81
2019-02-23T11:16:01.563Z,103804.42
2019-02-23T11:18:32.709Z,103799.77
2019-02-23T11:21:03.316Z,103807.44
2019-02-23T11:23:43.879Z,103808.88
2019-02-23T11:26:06.947Z,103819.91
2019-02-23T11:28:37.587Z,103807.45
2019-02-23T11:31:08.072Z,103807.59
2019-02-23T11:33:38.636Z,103795.33
2019-02-23T11:36:09.148Z,103794.61
2019-02-23T11:38:39.781Z,103789.45
2019-02-23T11:41:10.868Z,103785.13
2019-02-23T11:43:41.347Z,103787.58
2019-02-23T11:46:11.910Z,103792.13
2019-02-23T11:48:42.962Z,103792.89
2019-02-23T11:51:13.462Z,103789.59
2019-02-23T11:53:54.394Z,103780.88
2019-02-23T11:56:16.231Z,103780.39
2019-02-23T11:58:46.709Z,103766.17
2019-02-23T12:01:17.242Z,103757.88
2019-02-23T12:03:49.842Z,103759.48
2019-02-23T12:06:28.865Z,103753.88
2019-02-23T12:09:11.549Z,103750.80
2019-02-23T12:11:49.662Z,103749.54
2019-02-23T12:15:05.797Z,103742.13
2019-02-23T12:17:46.713Z,103743.30
2019-02-23T12:20:19.850Z,103736.99
2019-02-23T12:22:50.625Z,103737.44
2019-02-23T12:25:21.108Z,103729.91
2019-02-23T12:27:52.652Z,103735.50
2019-02-23T12:35:09.478Z,103733.50
2019-02-23T12:41:29.544Z,103720.67
2019-02-23T12:44:00.827Z,103721.80
2019-02-23T12:46:32.346Z,103719.43
2019-02-23T12:49:04.037Z,103717.34
2019-02-23T12:51:34.532Z,103712.28
2019-02-23T12:54:05.054Z,103709.29
2019-02-23T12:56:35.604Z,103708.89
2019-02-23T12:59:06.131Z,103700.07
2019-02-23T13:01:36.647Z,103701.46
2019-02-23T13:04:07.238Z,103690.44
2019-02-23T13:06:37.791Z,103688.89
2019-02-23T13:09:24.805Z,103683.33
2019-02-23T13:12:25.047Z,103684.94
2019-02-23T13:15:41.177Z,103684.02
2019-02-23T13:19:31.695Z,103686.41
2019-02-23T13:22:17.282Z,103692.23
2019-02-23T13:25:52.295Z,103679.52
2019-02-23T13:28:56.839Z,103672.62
2019-02-23T13:32:21.322Z,103676.56
2019-02-23T13:35:20.788Z,103670.03
2019-02-23T13:38:44.807Z,103672.48
2019-02-23T13:41:56.114Z,103674.93
2019-02-23T13:45:15.839Z,103663.65
2019-02-23T13:48:40.681Z,103665.28
2019-02-23T13:52:14.827Z,103654.88
2019-02-23T13:55:45.690Z,103658.83
2019-02-23T13:59:25.137Z,103662.55
2019-02-23T14:02:51.990Z,103659.28
2019-02-23T14:05:46.523Z,103655.85
2019-02-23T14:09:17.489Z,103658.33
2019-02-23T14:12:56.820Z,103651.86
2019-02-23T14:16:30.105Z,103649.11
2019-02-23T14:19:35.468Z,103644.23
2019-02-23T14:23:14.992Z,103642.34
2019-02-23T14:26:43.416Z,103644.41
2019-02-23T14:30:29.043Z,103636.80
2019-02-23T14:33:50.778Z,103634.48
2019-02-23T14:37:01.239Z,103643.57
2019-02-23T14:40:15.243Z,103644.02
2019-02-23T14:43:47.130Z,103647.69
2019-02-23T14:47:14.303Z,103653.13
2019-02-23T14:50:30.643Z,103653.95
2019-02-23T14:54:06.178Z,103659.14
2019-02-23T14:57:14.434Z,103662.73
2019-02-23T15:00:39.829Z,103663.45
2019-02-23T15:03:56.995Z,103667.25
2019-02-23T15:07:48.843Z,103667.09
2019-02-23T15:11:13.859Z,103662.63
2019-02-23T15:14:46.471Z,103657.49
2019-02-23T15:17:55.108Z,103655.97
2019-02-23T15:21:40.773Z,103645.55
2019-02-23T15:24:50.983Z,103635.33
2019-02-23T15:28:30.228Z,103623.44
2019-02-23T15:31:19.701Z,103624.66
2019-02-23T15:34:29.504Z,103626.77
2019-02-23T15:37:17.782Z,103622.59
2019-02-23T15:40:34.600Z,103624.25
2019-02-23T15:43:57.545Z,103625.09
2019-02-23T15:47:04.358Z,103622.86
2019-02-23T15:49:36.554Z,103621.80
2019-02-23T15:52:08.649Z,103611.18
2019-02-23T15:54:39.188Z,103615.43
2019-02-23T15:57:09.714Z,103619.51
2019-02-23T15:59:40.160Z,103615.86
2019-02-23T16:02:10.621Z,103617.72
2019-02-23T16:04:41.116Z,103616.20
2019-02-23T16:07:11.606Z,103612.83
2019-02-23T16:12:09.678Z,103613.66
2019-02-23T16:14:40.343Z,103611.34
2019-02-23T16:17:10.845Z,103607.97
2019-02-23T16:19:44.587Z,103615.72
2019-02-23T16:22:18.566Z,103611.52
2019-02-23T16:24:47.830Z,103613.48
2019-02-23T16:27:18.462Z,103607.28
2019-02-23T16:29:48.961Z,103605.81
2019-02-23T16:32:19.505Z,103600.28
2019-02-23T16:34:50.041Z,103599.66
2019-02-23T16:37:20.726Z,103600.47
2019-02-23T16:39:51.352Z,103601.43
2019-02-23T16:42:21.926Z,103607.74
2019-02-23T16:44:52.331Z,103603.22
2019-02-23T16:47:22.851Z,103606.43
2019-02-23T16:49:53.467Z,103606.10
2019-02-23T16:52:23.972Z,103608.10
2019-02-23T16:54:54.583Z,103616.55
2019-02-23T16:57:25.181Z,103616.36
2019-02-23T16:59:55.767Z,103613.02
2019-02-23T17:02:26.400Z,103613.97
2019-02-23T17:04:57.000Z,103620.11
2019-02-23T17:07:27.568Z,103613.73
2019-02-23T17:09:58.353Z,103618.70
2019-02-23T17:12:28.985Z,103612.69
2019-02-23T17:14:59.431Z,103618.92
2019-02-23T17:17:30.342Z,103610.81
2019-02-23T17:20:00.852Z,103613.60
2019-02-23T17:22:31.417Z,103618.41
2019-02-23T17:25:01.981Z,103614.17
2019-02-23T17:27:36.182Z,103612.50
2019-02-23T17:30:05.000Z,103622.16
2019-02-23T17:32:35.515Z,103622.19
2019-02-23T17:35:06.318Z,103626.69
2019-02-23T17:37:36.848Z,103626.89
2019-02-23T17:40:07.486Z,103629.17
2019-02-23T17:42:38.077Z,103631.44
2019-02-23T17:45:10.641Z,103628.03
2019-02-23T17:47:41.177Z,103633.33
2019-02-23T17:50:12.113Z,103631.75
2019-02-23T17:52:42.677Z,103634.91
2019-02-23T17:55:13.155Z,103638.36
2019-02-23T17:57:43.753Z,103633.84
2019-02-23T18:00:16.696Z,103636.80
2019-02-23T18:02:47.262Z,103639.61
2019-02-23T18:05:17.848Z,103643.14
2019-02-23T18:07:48.597Z,103640.14
2019-02-23T18:10:19.266Z,103637.23
2019-02-23T18:12:49.844Z,103637.63
2019-02-23T18:15:20.497Z,103640.84
2019-02-23T18:17:50.985Z,103646.89
2019-02-23T18:20:21.591Z,103651.54
2019-02-23T18:22:52.599Z,103644.04
2019-02-23T18:25:23.165Z,103641.62
2019-02-23T18:27:53.933Z,103644.08
2019-02-23T18:30:24.453Z,103648.91
2019-02-23T18:32:55.012Z,103642.22
2019-02-23T18:35:25.543Z,103651.00
2019-02-23T18:37:56.031Z,103650.27
2019-02-23T18:40:27.290Z,103649.45
2019-02-23T18:42:58.078Z,103643.52
2019-02-23T18:45:28.489Z,103647.76
2019-02-23T18:47:59.694Z,103642.55
2019-02-23T18:50:30.384Z,103643.45
2019-02-23T18:53:01.069Z,103641.57
2019-02-23T18:55:40.606Z,103640.05
2019-02-23T18:58:04.470Z,103635.42
2019-02-23T19:00:35.018Z,103633.73
2019-02-23T19:06:19.275Z,103647.41
2019-02-23T19:08:53.318Z,103649.25
2019-02-23T19:11:26.156Z,103636.84
2019-02-23T19:13:56.707Z,103633.31
2019-02-23T19:16:27.333Z,103632.80
2019-02-23T19:18:57.861Z,103628.78
2019-02-23T19:21:28.421Z,103638.06
2019-02-23T19:23:59.033Z,103632.64
2019-02-23T19:26:37.832Z,103639.33
2019-02-23T19:29:01.873Z,103641.05
2019-02-23T19:31:32.398Z,103643.25
2019-02-23T19:34:03.068Z,103639.33
2019-02-23T19:36:33.779Z,103635.75
2019-02-23T19:39:04.665Z,103638.44
2019-02-23T19:41:35.214Z,103639.25
2019-02-23T19:44:06.330Z,103638.04
2019-02-23T19:46:43.025Z,103633.37
2019-02-23T19:49:13.477Z,103629.95
2019-02-23T19:51:44.089Z,103630.80
2019-02-23T19:54:15.604Z,103627.45
2019-02-23T19:56:47.009Z,103624.92
2019-02-23T19:59:17.687Z,103616.24
2019-02-23T20:01:48.292Z,103619.34
2019-02-23T20:04:18.864Z,103618.95
2019-02-23T20:06:49.407Z,103614.21
2019-02-23T20:09:19.991Z,103615.94
2019-02-23T20:11:50.495Z,103618.55
2019-02-23T20:14:21.105Z,103618.55
2019-02-23T20:16:51.626Z,103614.97
2019-02-23T20:19:22.127Z,103617.54
2019-02-23T20:21:52.647Z,103616.18
2019-02-23T20:24:23.244Z,103619.69
2019-02-23T20:26:55.822Z,103623.09
2019-02-23T20:29:26.004Z,103625.16
2019-02-23T20:31:56.554Z,103616.91
2019-02-23T20:34:27.077Z,103615.20
2019-02-23T20:36:57.649Z,103618.20
2019-02-23T20:39:28.240Z,103617.34
2019-02-23T20:41:58.746Z,103611.27
2019-02-23T20:44:29.307Z,103608.69
2019-02-23T20:46:59.895Z,103609.42
2019-02-23T20:49:30.381Z,103609.40
2019-02-23T20:52:01.182Z,103604.66
2019-02-23T20:54:31.792Z,103603.70
2019-02-23T20:57:05.253Z,103604.10
2019-02-23T20:59:34.648Z,103601.09
2019-02-23T21:02:05.242Z,103602.87
2019-02-23T21:04:35.746Z,103605.97
2019-02-23T21:07:08.229Z,103608.59
2019-02-23T21:09:39.366Z,103606.45
2019-02-23T21:12:09.941Z,103596.44
2019-02-23T21:14:40.512Z,103595.63
2019-02-23T21:17:11.100Z,103592.59
2019-02-23T21:19:41.624Z,103585.73
2019-02-23T21:22:13.565Z,103589.64
2019-02-23T21:24:44.198Z,103589.25
2019-02-23T21:27:14.731Z,103586.25
2019-02-23T21:29:45.299Z,103581.03
2019-02-23T21:32:15.931Z,103577.98
2019-02-23T21:34:46.431Z,103576.69
2019-02-23T21:37:16.993Z,103574.91
2019-02-23T21:39:47.578Z,103579.31
2019-02-23T21:42:18.080Z,103578.96
2019-02-23T21:44:48.501Z,103568.51
2019-02-23T21:47:19.080Z,103571.69
2019-02-23T21:49:49.625Z,103563.81
2019-02-23T21:52:20.117Z,103566.88
2019-02-23T21:54:50.667Z,103566.89
2019-02-23T21:57:22.418Z,103570.41
2019-02-23T21:59:53.189Z,103566.07
2019-02-23T22:02:23.821Z,103568.60
2019-02-23T22:04:54.589Z,103559.08
2019-02-23T22:07:25.969Z,103556.47
2019-02-23T22:10:15.608Z,103553.77
2019-02-23T22:12:46.313Z,103552.53
2019-02-23T22:15:16.926Z,103546.08
2019-02-23T22:17:47.517Z,103541.28
2019-02-23T22:20:18.000Z,103540.86
2019-02-23T22:22:48.572Z,103535.17
2019-02-23T22:25:19.165Z,103536.53
2019-02-23T22:27:49.846Z,103537.86
2019-02-23T22:30:20.527Z,103536.53
2019-02-23T22:32:51.053Z,103529.06
2019-02-23T22:35:21.831Z,103524.25
2019-02-23T22:37:52.501Z,103521.23
2019-02-23T22:40:23.244Z,103521.80
2019-02-23T22:42:53.818Z,103520.50
2019-02-23T22:45:24.474Z,103524.53
2019-02-23T22:47:55.091Z,103518.50
2019-02-23T22:50:25.638Z,103505.80
2019-02-23T22:52:56.250Z,103502.29
2019-02-23T22:55:26.878Z,103498.81
2019-02-23T22:57:57.490Z,103503.52
2019-02-23T23:00:38.243Z,103493.02
2019-02-23T23:03:08.942Z,103496.51
2019-02-23T23:05:39.562Z,103497.83
2019-02-23T23:08:10.414Z,103497.81
2019-02-23T23:10:40.990Z,103499.95
2019-02-23T23:13:14.740Z,103501.73
2019-02-23T23:15:45.339Z,103500.02
2019-02-23T23:18:15.974Z,103504.27
2019-02-23T23:20:46.600Z,103505.22
2019-02-23T23:23:18.107Z,103505.23
2019-02-23T23:25:48.731Z,103503.92
2019-02-23T23:28:22.132Z,103506.12
2019-02-23T23:31:14.711Z,103497.39
2019-02-23T23:33:45.375Z,103503.05
2019-02-23T23:36:15.933Z,103500.86
2019-02-23T23:38:46.884Z,103499.60
2019-02-23T23:41:17.453Z,103500.45
2019-02-23T23:43:48.033Z,103501.73
2019-02-23T23:46:18.663Z,103496.99
2019-02-23T23:48:49.605Z,103502.62
2019-02-23T23:51:20.185Z,103516.09
2019-02-23T23:53:51.222Z,103516.59
2019-02-23T23:56:21.778Z,103510.59
2019-02-23T23:58:52.829Z,103511.84
